sensor_id;sensor_type;location;lat;lon;timestamp;pressure;altitude;pressure_sealevel;temperature;humidity
25944;BME280;13742;49.306;8.636;2022-12-18T00:00:42;101879.88;;;-7.04;100.00
25944;BME280;13742;49.306;8.636;2022-12-18T00:01:39;101881.22;;;-6.98;100.00
25944;BME280;13742;49.306;8.636;2022-12-18T00:02:39;101884.77;;;-6.95;100.00
25944;BME280;13742;49.306;8.636;2022-12-18T00:03:39;101881.96;;;-6.90;100.00
25944;BME280;13742;49.306;8.636;2022-12-18T00:04:39;101881.27;;;-6.88;100.00
25944;BME280;13742;49.306;8.636;2022-12-18T00:06:39;101884.59;;;-6.80;100.00
25944;BME280;13742;49.306;8.636;2022-12-18T00:07:39;101887.33;;;-6.90;100.00
25944;BME280;13742;49.306;8.636;2022-12-18T00:08:39;101883.01;;;-6.95;100.00
25944;BME280;13742;49.306;8.636;2022-12-18T00:09:39;101882.49;;;-6.89;100.00
25944;BME280;13742;49.306;8.636;2022-12-18T00:10:39;101882.06;;;-6.86;100.00
25944;BME280;13742;49.306;8.636;2022-12-18T00:11:39;101877.47;;;-6.82;100.00
25944;BME280;13742;49.306;8.636;2022-12-18T00:12:39;101879.40;;;-6.79;100.00
25944;BME280;13742;49.306;8.636;2022-12-18T00:13:39;101880.06;;;-6.91;100.00
25944;BME280;13742;49.306;8.636;2022-12-18T00:14:39;101882.83;;;-6.90;100.00
25944;BME280;13742;49.306;8.636;2022-12-18T00:15:39;101879.64;;;-6.91;100.00
25944;BME280;13742;49.306;8.636;2022-12-18T00:16:39;101877.74;;;-6.88;100.00
25944;BME280;13742;49.306;8.636;2022-12-18T00:17:39;101877.35;;;-6.85;100.00
25944;BME280;13742;49.306;8.636;2022-12-18T00:18:39;101878.28;;;-6.93;100.00
25944;BME280;13742;49.306;8.636;2022-12-18T00:19:39;101881.17;;;-6.96;100.00
25944;BME280;13742;49.306;8.636;2022-12-18T00:20:39;101885.42;;;-6.95;100.00
25944;BME280;13742;49.306;8.636;2022-12-18T00:21:39;101884.52;;;-6.92;100.00
25944;BME280;13742;49.306;8.636;2022-12-18T00:22:39;101887.47;;;-6.92;100.00
25944;BME280;13742;49.306;8.636;2022-12-18T00:23:39;101892.61;;;-6.89;100.00
25944;BME280;13742;49.306;8.636;2022-12-18T00:24:39;101890.23;;;-6.91;100.00
25944;BME280;13742;49.306;8.636;2022-12-18T00:25:39;101889.92;;;-6.97;100.00
25944;BME280;13742;49.306;8.636;2022-12-18T00:26:39;101890.05;;;-6.90;100.00
25944;BME280;13742;49.306;8.636;2022-12-18T00:27:39;101891.70;;;-6.93;100.00
25944;BME280;13742;49.306;8.636;2022-12-18T00:28:39;101889.83;;;-6.90;100.00
25944;BME280;13742;49.306;8.636;2022-12-18T00:29:39;101890.17;;;-6.87;100.00
25944;BME280;13742;49.306;8.636;2022-12-18T00:30:39;101885.62;;;-6.87;100.00
25944;BME280;13742;49.306;8.636;2022-12-18T00:31:39;101885.88;;;-6.87;100.00
25944;BME280;13742;49.306;8.636;2022-12-18T00:32:39;101882.55;;;-6.93;100.00
25944;BME280;13742;49.306;8.636;2022-12-18T00:33:39;101885.78;;;-6.87;100.00
25944;BME280;13742;49.306;8.636;2022-12-18T00:34:39;101881.29;;;-6.86;100.00
25944;BME280;13742;49.306;8.636;2022-12-18T00:35:39;101876.48;;;-6.86;100.00
25944;BME280;13742;49.306;8.636;2022-12-18T00:36:39;101877.47;;;-6.82;100.00
25944;BME280;13742;49.306;8.636;2022-12-18T00:37:39;101877.67;;;-6.81;100.00
25944;BME280;13742;49.306;8.636;2022-12-18T00:38:39;101873.48;;;-6.82;100.00
25944;BME280;13742;49.306;8.636;2022-12-18T00:39:39;101879.38;;;-6.79;100.00
25944;BME280;13742;49.306;8.636;2022-12-18T00:40:39;101882.41;;;-6.77;100.00
25944;BME280;13742;49.306;8.636;2022-12-18T00:41:44;101881.95;;;-6.74;100.00
25944;BME280;13742;49.306;8.636;2022-12-18T00:42:44;101886.17;;;-6.93;100.00
25944;BME280;13742;49.306;8.636;2022-12-18T00:43:39;101887.87;;;-6.87;100.00
25944;BME280;13742;49.306;8.636;2022-12-18T00:44:39;101889.36;;;-6.82;100.00
25944;BME280;13742;49.306;8.636;2022-12-18T00:45:39;101886.55;;;-6.84;100.00
25944;BME280;13742;49.306;8.636;2022-12-18T00:46:39;101884.41;;;-6.82;100.00
25944;BME280;13742;49.306;8.636;2022-12-18T00:47:39;101883.72;;;-6.81;100.00
25944;BME280;13742;49.306;8.636;2022-12-18T00:48:39;101882.11;;;-6.81;100.00
25944;BME280;13742;49.306;8.636;2022-12-18T00:49:39;101885.95;;;-6.92;100.00
25944;BME280;13742;49.306;8.636;2022-12-18T00:50:39;101880.24;;;-6.85;100.00
25944;BME280;13742;49.306;8.636;2022-12-18T00:51:39;101882.58;;;-6.93;100.00
25944;BME280;13742;49.306;8.636;2022-12-18T00:52:39;101883.03;;;-6.93;100.00
25944;BME280;13742;49.306;8.636;2022-12-18T00:53:39;101887.86;;;-6.85;100.00
25944;BME280;13742;49.306;8.636;2022-12-18T00:54:39;101893.35;;;-6.84;100.00
25944;BME280;13742;49.306;8.636;2022-12-18T00:55:39;101892.68;;;-6.84;100.00
25944;BME280;13742;49.306;8.636;2022-12-18T00:56:39;101895.25;;;-6.80;100.00
25944;BME280;13742;49.306;8.636;2022-12-18T00:57:39;101900.31;;;-6.78;100.00
25944;BME280;13742;49.306;8.636;2022-12-18T00:58:39;101898.54;;;-6.75;100.00
25944;BME280;13742;49.306;8.636;2022-12-18T00:59:39;101894.91;;;-6.72;100.00
25944;BME280;13742;49.306;8.636;2022-12-18T01:00:39;101894.19;;;-6.70;100.00
25944;BME280;13742;49.306;8.636;2022-12-18T01:01:39;101897.55;;;-6.67;100.00
25944;BME280;13742;49.306;8.636;2022-12-18T01:02:39;101900.02;;;-6.68;100.00
25944;BME280;13742;49.306;8.636;2022-12-18T01:03:39;101894.81;;;-6.64;100.00
25944;BME280;13742;49.306;8.636;2022-12-18T01:04:39;101894.08;;;-6.68;100.00
25944;BME280;13742;49.306;8.636;2022-12-18T01:05:41;101890.61;;;-6.70;100.00
25944;BME280;13742;49.306;8.636;2022-12-18T01:06:39;101891.77;;;-6.67;100.00
25944;BME280;13742;49.306;8.636;2022-12-18T01:07:39;101891.91;;;-6.65;100.00
25944;BME280;13742;49.306;8.636;2022-12-18T01:08:39;101893.23;;;-6.64;100.00
25944;BME280;13742;49.306;8.636;2022-12-18T01:09:39;101900.45;;;-6.62;100.00
25944;BME280;13742;49.306;8.636;2022-12-18T01:10:42;101894.56;;;-6.59;100.00
25944;BME280;13742;49.306;8.636;2022-12-18T01:11:39;101890.59;;;-6.59;100.00
25944;BME280;13742;49.306;8.636;2022-12-18T01:12:39;101891.13;;;-6.59;100.00
25944;BME280;13742;49.306;8.636;2022-12-18T01:13:39;101886.61;;;-6.58;100.00
25944;BME280;13742;49.306;8.636;2022-12-18T01:14:39;101887.27;;;-6.55;100.00
25944;BME280;13742;49.306;8.636;2022-12-18T01:15:39;101888.09;;;-6.56;100.00
25944;BME280;13742;49.306;8.636;2022-12-18T01:16:39;101886.30;;;-6.53;100.00
25944;BME280;13742;49.306;8.636;2022-12-18T01:17:38;101885.39;;;-6.53;100.00
25944;BME280;13742;49.306;8.636;2022-12-18T01:18:39;101889.63;;;-6.55;100.00
25944;BME280;13742;49.306;8.636;2022-12-18T01:19:38;101892.94;;;-6.53;100.00
25944;BME280;13742;49.306;8.636;2022-12-18T01:20:38;101894.29;;;-6.58;100.00
25944;BME280;13742;49.306;8.636;2022-12-18T01:21:39;101891.58;;;-6.59;100.00
25944;BME280;13742;49.306;8.636;2022-12-18T01:22:39;101893.55;;;-6.57;100.00
25944;BME280;13742;49.306;8.636;2022-12-18T01:23:39;101890.02;;;-6.57;100.00
25944;BME280;13742;49.306;8.636;2022-12-18T01:24:39;101884.42;;;-6.54;100.00
25944;BME280;13742;49.306;8.636;2022-12-18T01:25:39;101887.63;;;-6.62;100.00
25944;BME280;13742;49.306;8.636;2022-12-18T01:26:39;101886.94;;;-6.64;100.00
25944;BME280;13742;49.306;8.636;2022-12-18T01:27:38;101892.25;;;-6.66;100.00
25944;BME280;13742;49.306;8.636;2022-12-18T01:28:39;101888.06;;;-6.83;100.00
25944;BME280;13742;49.306;8.636;2022-12-18T01:29:38;101887.60;;;-6.95;100.00
25944;BME280;13742;49.306;8.636;2022-12-18T01:30:39;101886.41;;;-6.86;100.00
25944;BME280;13742;49.306;8.636;2022-12-18T01:31:39;101886.91;;;-6.79;100.00
25944;BME280;13742;49.306;8.636;2022-12-18T01:32:39;101893.51;;;-6.78;100.00
25944;BME280;13742;49.306;8.636;2022-12-18T01:33:38;101891.27;;;-6.73;100.00
25944;BME280;13742;49.306;8.636;2022-12-18T01:34:38;101894.18;;;-6.78;100.00
25944;BME280;13742;49.306;8.636;2022-12-18T01:35:42;101892.87;;;-6.74;100.00
25944;BME280;13742;49.306;8.636;2022-12-18T01:36:38;101892.08;;;-6.72;100.00
25944;BME280;13742;49.306;8.636;2022-12-18T01:37:39;101892.95;;;-6.72;100.00
25944;BME280;13742;49.306;8.636;2022-12-18T01:38:39;101895.38;;;-6.73;100.00
25944;BME280;13742;49.306;8.636;2022-12-18T01:39:39;101894.98;;;-6.71;100.00
25944;BME280;13742;49.306;8.636;2022-12-18T01:40:38;101894.48;;;-6.68;100.00
25944;BME280;13742;49.306;8.636;2022-12-18T01:41:44;101894.64;;;-6.65;100.00
25944;BME280;13742;49.306;8.636;2022-12-18T01:42:39;101891.40;;;-6.69;100.00
25944;BME280;13742;49.306;8.636;2022-12-18T01:45:38;101879.63;;;-6.63;100.00
25944;BME280;13742;49.306;8.636;2022-12-18T01:46:38;101872.88;;;-6.59;100.00
25944;BME280;13742;49.306;8.636;2022-12-18T01:48:39;101869.98;;;-6.59;100.00
25944;BME280;13742;49.306;8.636;2022-12-18T01:49:38;101863.73;;;-6.67;100.00
25944;BME280;13742;49.306;8.636;2022-12-18T01:50:40;101870.83;;;-6.62;100.00
25944;BME280;13742;49.306;8.636;2022-12-18T01:51:39;101874.05;;;-6.61;100.00
25944;BME280;13742;49.306;8.636;2022-12-18T01:52:38;101875.82;;;-6.61;100.00
25944;BME280;13742;49.306;8.636;2022-12-18T01:53:39;101883.84;;;-6.59;100.00
25944;BME280;13742;49.306;8.636;2022-12-18T01:54:38;101889.02;;;-6.58;100.00
25944;BME280;13742;49.306;8.636;2022-12-18T01:55:56;101895.20;;;-6.65;100.00
25944;BME280;13742;49.306;8.636;2022-12-18T01:56:38;101897.53;;;-6.68;100.00
25944;BME280;13742;49.306;8.636;2022-12-18T01:57:39;101900.78;;;-6.68;100.00
25944;BME280;13742;49.306;8.636;2022-12-18T01:59:38;101895.77;;;-6.64;100.00
25944;BME280;13742;49.306;8.636;2022-12-18T02:00:38;101888.30;;;-6.63;100.00
25944;BME280;13742;49.306;8.636;2022-12-18T02:01:38;101885.34;;;-6.59;100.00
25944;BME280;13742;49.306;8.636;2022-12-18T02:02:39;101884.27;;;-6.60;100.00
25944;BME280;13742;49.306;8.636;2022-12-18T02:03:40;101887.35;;;-6.57;100.00
25944;BME280;13742;49.306;8.636;2022-12-18T02:04:41;101896.45;;;-6.69;100.00
25944;BME280;13742;49.306;8.636;2022-12-18T02:06:40;101897.20;;;-6.81;100.00
25944;BME280;13742;49.306;8.636;2022-12-18T02:07:43;101895.38;;;-6.84;100.00
25944;BME280;13742;49.306;8.636;2022-12-18T02:09:41;101890.36;;;-6.77;100.00
25944;BME280;13742;49.306;8.636;2022-12-18T02:11:50;101879.95;;;-6.74;100.00
25944;BME280;13742;49.306;8.636;2022-12-18T02:12:43;101876.27;;;-6.73;100.00
25944;BME280;13742;49.306;8.636;2022-12-18T02:15:02;101873.38;;;-6.70;100.00
25944;BME280;13742;49.306;8.636;2022-12-18T02:15:40;101876.97;;;-6.74;100.00
25944;BME280;13742;49.306;8.636;2022-12-18T02:16:40;101877.23;;;-6.69;100.00
25944;BME280;13742;49.306;8.636;2022-12-18T02:18:41;101877.24;;;-6.75;100.00
25944;BME280;13742;49.306;8.636;2022-12-18T02:23:45;101896.94;;;-6.75;100.00
25944;BME280;13742;49.306;8.636;2022-12-18T02:24:44;101895.70;;;-6.73;100.00
25944;BME280;13742;49.306;8.636;2022-12-18T02:26:43;101901.30;;;-6.72;100.00
25944;BME280;13742;49.306;8.636;2022-12-18T02:27:39;101896.25;;;-6.72;100.00
25944;BME280;13742;49.306;8.636;2022-12-18T02:28:42;101897.37;;;-6.69;100.00
25944;BME280;13742;49.306;8.636;2022-12-18T02:29:40;101899.44;;;-6.68;100.00
25944;BME280;13742;49.306;8.636;2022-12-18T02:30:38;101900.73;;;-6.66;100.00
25944;BME280;13742;49.306;8.636;2022-12-18T02:31:40;101900.03;;;-6.66;100.00
25944;BME280;13742;49.306;8.636;2022-12-18T02:32:43;101901.86;;;-6.78;100.00
25944;BME280;13742;49.306;8.636;2022-12-18T02:33:38;101903.86;;;-6.73;100.00
25944;BME280;13742;49.306;8.636;2022-12-18T02:34:39;101904.80;;;-6.68;100.00
25944;BME280;13742;49.306;8.636;2022-12-18T02:35:38;101900.95;;;-6.64;100.00
25944;BME280;13742;49.306;8.636;2022-12-18T02:36:39;101903.81;;;-6.63;100.00
25944;BME280;13742;49.306;8.636;2022-12-18T02:37:39;101902.36;;;-6.72;100.00
25944;BME280;13742;49.306;8.636;2022-12-18T02:38:38;101906.79;;;-6.83;100.00
25944;BME280;13742;49.306;8.636;2022-12-18T02:39:39;101908.25;;;-6.87;100.00
25944;BME280;13742;49.306;8.636;2022-12-18T02:40:38;101913.06;;;-6.82;100.00
25944;BME280;13742;49.306;8.636;2022-12-18T02:41:38;101908.11;;;-6.85;100.00
25944;BME280;13742;49.306;8.636;2022-12-18T02:42:38;101904.09;;;-6.83;100.00
25944;BME280;13742;49.306;8.636;2022-12-18T02:43:38;101904.25;;;-6.80;100.00
25944;BME280;13742;49.306;8.636;2022-12-18T02:44:42;101898.59;;;-6.76;100.00
25944;BME280;13742;49.306;8.636;2022-12-18T02:47:39;101894.45;;;-6.83;100.00
25944;BME280;13742;49.306;8.636;2022-12-18T02:48:38;101892.86;;;-6.85;100.00
25944;BME280;13742;49.306;8.636;2022-12-18T02:50:41;101887.30;;;-6.85;100.00
25944;BME280;13742;49.306;8.636;2022-12-18T02:53:40;101878.23;;;-6.84;100.00
25944;BME280;13742;49.306;8.636;2022-12-18T02:56:39;101876.05;;;-6.92;100.00
25944;BME280;13742;49.306;8.636;2022-12-18T02:59:40;101888.43;;;-6.85;100.00
25944;BME280;13742;49.306;8.636;2022-12-18T03:02:40;101893.76;;;-6.92;100.00
25944;BME280;13742;49.306;8.636;2022-12-18T03:03:40;101892.59;;;-6.90;100.00
25944;BME280;13742;49.306;8.636;2022-12-18T03:06:43;101882.63;;;-6.91;100.00
25944;BME280;13742;49.306;8.636;2022-12-18T03:07:44;101884.42;;;-7.01;100.00
25944;BME280;13742;49.306;8.636;2022-12-18T03:08:42;101889.17;;;-6.96;100.00
25944;BME280;13742;49.306;8.636;2022-12-18T03:09:39;101890.38;;;-6.90;100.00
25944;BME280;13742;49.306;8.636;2022-12-18T03:10:39;101889.86;;;-6.87;100.00
25944;BME280;13742;49.306;8.636;2022-12-18T03:11:45;101889.71;;;-6.85;100.00
25944;BME280;13742;49.306;8.636;2022-12-18T03:12:40;101888.31;;;-6.84;100.00
25944;BME280;13742;49.306;8.636;2022-12-18T03:13:40;101886.66;;;-6.82;100.00
25944;BME280;13742;49.306;8.636;2022-12-18T03:14:38;101884.84;;;-6.84;100.00
25944;BME280;13742;49.306;8.636;2022-12-18T03:15:40;101883.53;;;-6.98;100.00
25944;BME280;13742;49.306;8.636;2022-12-18T03:16:38;101886.21;;;-6.92;100.00
25944;BME280;13742;49.306;8.636;2022-12-18T03:17:40;101889.67;;;-6.96;100.00
25944;BME280;13742;49.306;8.636;2022-12-18T03:18:42;101889.81;;;-6.95;100.00
25944;BME280;13742;49.306;8.636;2022-12-18T03:19:39;101893.59;;;-7.10;100.00
25944;BME280;13742;49.306;8.636;2022-12-18T03:20:39;101888.81;;;-7.11;100.00
25944;BME280;13742;49.306;8.636;2022-12-18T03:21:40;101891.16;;;-7.06;100.00
25944;BME280;13742;49.306;8.636;2022-12-18T03:22:38;101887.52;;;-7.01;100.00
25944;BME280;13742;49.306;8.636;2022-12-18T03:24:39;101880.98;;;-6.95;100.00
25944;BME280;13742;49.306;8.636;2022-12-18T03:25:39;101873.59;;;-6.92;100.00
25944;BME280;13742;49.306;8.636;2022-12-18T03:26:40;101873.88;;;-6.89;100.00
25944;BME280;13742;49.306;8.636;2022-12-18T03:27:40;101874.72;;;-6.85;100.00
25944;BME280;13742;49.306;8.636;2022-12-18T03:28:39;101873.48;;;-6.83;100.00
25944;BME280;13742;49.306;8.636;2022-12-18T03:29:40;101870.88;;;-6.81;100.00
25944;BME280;13742;49.306;8.636;2022-12-18T03:30:39;101868.67;;;-6.79;100.00
25944;BME280;13742;49.306;8.636;2022-12-18T03:31:39;101871.02;;;-6.79;100.00
25944;BME280;13742;49.306;8.636;2022-12-18T03:32:41;101876.95;;;-6.80;100.00
25944;BME280;13742;49.306;8.636;2022-12-18T03:34:01;101888.09;;;-6.77;100.00
25944;BME280;13742;49.306;8.636;2022-12-18T03:34:39;101889.79;;;-6.81;100.00
25944;BME280;13742;49.306;8.636;2022-12-18T03:35:40;101896.66;;;-6.98;100.00
25944;BME280;13742;49.306;8.636;2022-12-18T03:36:38;101899.17;;;-7.00;100.00
25944;BME280;13742;49.306;8.636;2022-12-18T03:37:38;101898.59;;;-6.94;100.00
25944;BME280;13742;49.306;8.636;2022-12-18T03:38:38;101899.20;;;-6.90;100.00
25944;BME280;13742;49.306;8.636;2022-12-18T03:39:38;101895.17;;;-6.89;100.00
25944;BME280;13742;49.306;8.636;2022-12-18T03:42:25;101897.36;;;-6.98;99.65
25944;BME280;13742;49.306;8.636;2022-12-18T03:43:49;101892.25;;;-6.92;99.70
25944;BME280;13742;49.306;8.636;2022-12-18T03:45:41;101887.13;;;-6.91;99.38
25944;BME280;13742;49.306;8.636;2022-12-18T03:46:41;101885.04;;;-6.91;99.27
25944;BME280;13742;49.306;8.636;2022-12-18T03:48:41;101888.31;;;-6.97;98.37
25944;BME280;13742;49.306;8.636;2022-12-18T03:50:45;101888.73;;;-6.94;98.80
25944;BME280;13742;49.306;8.636;2022-12-18T03:53:02;101884.52;;;-6.91;98.88
25944;BME280;13742;49.306;8.636;2022-12-18T03:54:21;101884.30;;;-6.90;98.89
25944;BME280;13742;49.306;8.636;2022-12-18T03:54:38;101887.81;;;-6.90;98.64
25944;BME280;13742;49.306;8.636;2022-12-18T03:55:38;101885.69;;;-6.91;98.38
25944;BME280;13742;49.306;8.636;2022-12-18T03:56:40;101888.20;;;-6.97;98.06
25944;BME280;13742;49.306;8.636;2022-12-18T03:57:38;101893.60;;;-6.98;97.61
25944;BME280;13742;49.306;8.636;2022-12-18T03:58:38;101891.36;;;-7.02;97.34
25944;BME280;13742;49.306;8.636;2022-12-18T03:59:38;101894.56;;;-7.03;97.40
25944;BME280;13742;49.306;8.636;2022-12-18T04:00:38;101898.36;;;-7.04;97.26
25944;BME280;13742;49.306;8.636;2022-12-18T04:01:39;101896.25;;;-7.06;96.94
25944;BME280;13742;49.306;8.636;2022-12-18T04:02:39;101889.49;;;-7.08;97.19
25944;BME280;13742;49.306;8.636;2022-12-18T04:03:38;101891.14;;;-7.04;97.47
25944;BME280;13742;49.306;8.636;2022-12-18T04:04:38;101890.77;;;-7.03;97.60
25944;BME280;13742;49.306;8.636;2022-12-18T04:05:38;101887.92;;;-7.01;97.73
25944;BME280;13742;49.306;8.636;2022-12-18T04:06:38;101887.52;;;-7.00;97.57
25944;BME280;13742;49.306;8.636;2022-12-18T04:07:38;101887.66;;;-6.99;97.45
25944;BME280;13742;49.306;8.636;2022-12-18T04:08:39;101889.28;;;-6.97;97.39
25944;BME280;13742;49.306;8.636;2022-12-18T04:09:38;101889.19;;;-6.97;96.96
25944;BME280;13742;49.306;8.636;2022-12-18T04:10:38;101887.36;;;-6.97;96.82
25944;BME280;13742;49.306;8.636;2022-12-18T04:11:39;101888.67;;;-6.94;96.87
25944;BME280;13742;49.306;8.636;2022-12-18T04:12:38;101888.51;;;-6.94;96.61
25944;BME280;13742;49.306;8.636;2022-12-18T04:13:38;101891.44;;;-6.93;96.39
25944;BME280;13742;49.306;8.636;2022-12-18T04:14:38;101892.91;;;-6.94;95.88
25944;BME280;13742;49.306;8.636;2022-12-18T04:15:38;101894.85;;;-6.92;95.81
25944;BME280;13742;49.306;8.636;2022-12-18T04:16:38;101893.34;;;-6.91;95.70
25944;BME280;13742;49.306;8.636;2022-12-18T04:17:39;101891.67;;;-6.92;95.43
25944;BME280;13742;49.306;8.636;2022-12-18T04:18:38;101894.42;;;-6.93;95.04
25944;BME280;13742;49.306;8.636;2022-12-18T04:19:38;101888.41;;;-6.95;94.55
25944;BME280;13742;49.306;8.636;2022-12-18T04:20:38;101886.09;;;-6.94;94.49
25944;BME280;13742;49.306;8.636;2022-12-18T04:21:38;101884.44;;;-7.00;93.73
25944;BME280;13742;49.306;8.636;2022-12-18T04:22:38;101882.88;;;-7.09;93.21
25944;BME280;13742;49.306;8.636;2022-12-18T04:23:38;101885.40;;;-7.16;93.29
25944;BME280;13742;49.306;8.636;2022-12-18T04:24:38;101882.72;;;-7.18;93.46
25944;BME280;13742;49.306;8.636;2022-12-18T04:25:38;101884.14;;;-7.19;93.59
25944;BME280;13742;49.306;8.636;2022-12-18T04:26:38;101886.20;;;-7.25;93.76
25944;BME280;13742;49.306;8.636;2022-12-18T04:27:38;101879.78;;;-7.26;93.88
25944;BME280;13742;49.306;8.636;2022-12-18T04:28:38;101881.52;;;-7.28;94.15
25944;BME280;13742;49.306;8.636;2022-12-18T04:29:38;101881.09;;;-7.24;94.81
25944;BME280;13742;49.306;8.636;2022-12-18T04:30:38;101880.80;;;-7.27;94.59
25944;BME280;13742;49.306;8.636;2022-12-18T04:31:38;101881.34;;;-7.30;94.24
25944;BME280;13742;49.306;8.636;2022-12-18T04:32:38;101882.11;;;-7.36;94.04
25944;BME280;13742;49.306;8.636;2022-12-18T04:33:38;101886.20;;;-7.32;94.57
25944;BME280;13742;49.306;8.636;2022-12-18T04:34:38;101882.78;;;-7.36;94.44
25944;BME280;13742;49.306;8.636;2022-12-18T04:35:39;101881.13;;;-7.38;94.38
25944;BME280;13742;49.306;8.636;2022-12-18T04:36:38;101879.28;;;-7.38;94.44
25944;BME280;13742;49.306;8.636;2022-12-18T04:37:38;101875.11;;;-7.39;94.49
25944;BME280;13742;49.306;8.636;2022-12-18T04:38:38;101871.05;;;-7.40;94.48
25944;BME280;13742;49.306;8.636;2022-12-18T04:39:39;101873.92;;;-7.42;94.44
25944;BME280;13742;49.306;8.636;2022-12-18T04:40:38;101870.81;;;-7.42;94.96
25944;BME280;13742;49.306;8.636;2022-12-18T04:41:38;101871.77;;;-7.37;95.26
25944;BME280;13742;49.306;8.636;2022-12-18T04:42:39;101877.41;;;-7.34;95.62
25944;BME280;13742;49.306;8.636;2022-12-18T04:43:38;101877.80;;;-7.31;95.75
25944;BME280;13742;49.306;8.636;2022-12-18T04:44:38;101879.08;;;-7.28;95.71
25944;BME280;13742;49.306;8.636;2022-12-18T04:45:38;101884.69;;;-7.28;95.20
25944;BME280;13742;49.306;8.636;2022-12-18T04:46:38;101883.91;;;-7.26;95.07
25944;BME280;13742;49.306;8.636;2022-12-18T04:47:38;101882.97;;;-7.24;95.04
25944;BME280;13742;49.306;8.636;2022-12-18T04:48:38;101878.97;;;-7.23;95.07
25944;BME280;13742;49.306;8.636;2022-12-18T04:49:38;101880.47;;;-7.22;95.08
25944;BME280;13742;49.306;8.636;2022-12-18T04:50:38;101871.66;;;-7.20;95.08
25944;BME280;13742;49.306;8.636;2022-12-18T04:51:38;101872.64;;;-7.18;95.11
25944;BME280;13742;49.306;8.636;2022-12-18T04:52:38;101870.05;;;-7.16;94.90
25944;BME280;13742;49.306;8.636;2022-12-18T04:53:38;101874.88;;;-7.15;94.12
25944;BME280;13742;49.306;8.636;2022-12-18T04:54:38;101877.61;;;-7.15;93.74
25944;BME280;13742;49.306;8.636;2022-12-18T04:55:38;101879.64;;;-7.14;93.63
25944;BME280;13742;49.306;8.636;2022-12-18T04:56:38;101876.70;;;-7.14;93.55
25944;BME280;13742;49.306;8.636;2022-12-18T04:57:38;101877.56;;;-7.13;93.11
25944;BME280;13742;49.306;8.636;2022-12-18T04:58:39;101874.31;;;-7.14;93.08
25944;BME280;13742;49.306;8.636;2022-12-18T04:59:38;101874.53;;;-7.12;92.92
25944;BME280;13742;49.306;8.636;2022-12-18T05:00:38;101879.27;;;-7.13;92.66
25944;BME280;13742;49.306;8.636;2022-12-18T05:01:38;101879.98;;;-7.12;92.73
25944;BME280;13742;49.306;8.636;2022-12-18T05:02:38;101880.73;;;-7.11;92.16
25944;BME280;13742;49.306;8.636;2022-12-18T05:03:38;101883.48;;;-7.10;92.12
25944;BME280;13742;49.306;8.636;2022-12-18T05:04:38;101884.61;;;-7.09;92.27
25944;BME280;13742;49.306;8.636;2022-12-18T05:05:38;101886.77;;;-7.08;91.84
25944;BME280;13742;49.306;8.636;2022-12-18T05:06:38;101888.33;;;-7.09;91.45
25944;BME280;13742;49.306;8.636;2022-12-18T05:07:39;101883.84;;;-7.11;90.92
25944;BME280;13742;49.306;8.636;2022-12-18T05:08:38;101883.41;;;-7.16;90.05
25944;BME280;13742;49.306;8.636;2022-12-18T05:09:38;101882.13;;;-7.16;90.09
25944;BME280;13742;49.306;8.636;2022-12-18T05:10:38;101883.73;;;-7.16;90.37
25944;BME280;13742;49.306;8.636;2022-12-18T05:11:38;101888.72;;;-7.15;90.63
25944;BME280;13742;49.306;8.636;2022-12-18T05:12:53;101895.16;;;-7.16;90.09
25944;BME280;13742;49.306;8.636;2022-12-18T05:13:38;101902.26;;;-7.15;90.08
25944;BME280;13742;49.306;8.636;2022-12-18T05:14:38;101905.73;;;-7.15;89.87
25944;BME280;13742;49.306;8.636;2022-12-18T05:15:38;101910.12;;;-7.15;89.70
25944;BME280;13742;49.306;8.636;2022-12-18T05:16:38;101911.79;;;-7.15;89.61
25944;BME280;13742;49.306;8.636;2022-12-18T05:17:38;101908.44;;;-7.17;89.40
25944;BME280;13742;49.306;8.636;2022-12-18T05:18:38;101910.07;;;-7.17;89.51
25944;BME280;13742;49.306;8.636;2022-12-18T05:19:38;101905.27;;;-7.16;89.61
25944;BME280;13742;49.306;8.636;2022-12-18T05:20:38;101901.05;;;-7.14;89.78
25944;BME280;13742;49.306;8.636;2022-12-18T05:21:38;101902.53;;;-7.14;89.76
25944;BME280;13742;49.306;8.636;2022-12-18T05:22:38;101902.90;;;-7.15;89.51
25944;BME280;13742;49.306;8.636;2022-12-18T05:23:38;101903.69;;;-7.13;89.87
25944;BME280;13742;49.306;8.636;2022-12-18T05:24:38;101904.84;;;-7.11;90.18
25944;BME280;13742;49.306;8.636;2022-12-18T05:25:38;101908.11;;;-7.14;90.01
25944;BME280;13742;49.306;8.636;2022-12-18T05:26:38;101912.34;;;-7.14;89.99
25944;BME280;13742;49.306;8.636;2022-12-18T05:27:38;101912.44;;;-7.14;89.92
25944;BME280;13742;49.306;8.636;2022-12-18T05:28:38;101916.63;;;-7.13;90.10
25944;BME280;13742;49.306;8.636;2022-12-18T05:29:38;101920.66;;;-7.12;90.23
25944;BME280;13742;49.306;8.636;2022-12-18T05:30:38;101920.51;;;-7.11;90.04
25944;BME280;13742;49.306;8.636;2022-12-18T05:31:38;101919.05;;;-7.12;89.76
25944;BME280;13742;49.306;8.636;2022-12-18T05:32:38;101919.31;;;-7.11;89.69
25944;BME280;13742;49.306;8.636;2022-12-18T05:33:38;101917.65;;;-7.11;89.47
25944;BME280;13742;49.306;8.636;2022-12-18T05:34:38;101918.74;;;-7.11;89.22
25944;BME280;13742;49.306;8.636;2022-12-18T05:35:38;101912.73;;;-7.11;89.08
25944;BME280;13742;49.306;8.636;2022-12-18T05:36:38;101915.05;;;-7.11;88.70
25944;BME280;13742;49.306;8.636;2022-12-18T05:37:38;101914.17;;;-7.11;88.49
25944;BME280;13742;49.306;8.636;2022-12-18T05:38:38;101908.98;;;-7.14;88.36
25944;BME280;13742;49.306;8.636;2022-12-18T05:39:38;101906.97;;;-7.15;88.63
25944;BME280;13742;49.306;8.636;2022-12-18T05:40:40;101905.57;;;-7.15;89.44
25944;BME280;13742;49.306;8.636;2022-12-18T05:41:38;101902.24;;;-7.11;90.76
25944;BME280;13742;49.306;8.636;2022-12-18T05:42:38;101901.88;;;-7.09;91.37
25944;BME280;13742;49.306;8.636;2022-12-18T05:43:39;101897.86;;;-7.03;91.80
25944;BME280;13742;49.306;8.636;2022-12-18T05:44:38;101892.88;;;-7.01;92.33
25944;BME280;13742;49.306;8.636;2022-12-18T05:45:38;101888.24;;;-6.95;92.97